Latest Coastal Weather Observations for Evans Head

IDN60701

Issued at 8:45 pm EST Tuesday 30 September 2014 (issued every 10 minutes, with the page automatically refreshed every 10 minutes)

About coastal observations | Map of coastal stations | Coastal observations for NSW | Marine services | Other Formats
Station Details ID: 058212 Name: EVANS HEAD RAAF BOMBING RANGE AWS Lat: -29.18 Lon: 153.40 Height: 62.5 m
Data from the previous 72 hours. | See also: Recent months at Evans Head
Date/Time
EST
Temp

°C
Wind Pressure Rain
since 9am
mm
Weather Cloud Vis
km
Sea
Height
m
Swell
Dir
 
Speed
knots
Gust
knots
hPa Trend Height
m
Period
s
Dir
30/08:30pm 18.3 N 8 12 1015.9 - 0.0 - - - - - - -
30/08:00pm 18.7 NNE 9 14 1015.9 - 0.0 - - - - - - -
30/07:30pm 19.0 NNE 9 15 1015.8 - 0.0 - - - - - - -
30/07:00pm 19.3 NNE 10 16 1015.7 - 0.0 - - - - - - -
30/06:30pm 19.7 NNE 11 16 1015.4 - 0.0 - - - - - - -
30/06:00pm 20.2 NNE 11 19 1015.0 - 0.0 - - - - - - -
30/05:30pm 20.8 NNE 13 19 1014.6 - 0.0 - - - - - - -
30/05:00pm 22.0 NNE 12 19 1014.5 - 0.0 - - - - - - -
30/04:30pm 23.1 NNE 13 21 1014.8 - 0.0 - - - - - - -
30/04:00pm 24.7 NNE 12 19 1015.0 - 0.0 - - - - - - -
30/03:30pm 26.1 NNE 9 15 1015.0 - 0.0 - - - - - - -
30/03:00pm 26.2 NNE 10 17 1015.1 - 0.0 - - - - - - -
30/02:30pm 26.5 NE 9 15 1015.2 - 0.0 - - - - - - -
30/02:00pm 27.0 NE 9 16 1015.5 - 0.0 - - - - - - -
30/01:30pm 26.8 NNE 10 16 1015.8 - 0.0 - - - - - - -
30/01:00pm 27.0 NE 9 13 1016.3 - 0.0 - - - - - - -
30/12:30pm 28.0 NNE 8 14 1016.7 - 0.0 - - - - - - -
30/12:00pm 27.1 NNE 8 13 1017.1 - 0.0 - - - - - - -
30/11:30am 28.1 NNE 7 11 1017.3 - 0.0 - - - - - - -
30/11:00am 28.0 N 5 10 1017.7 - 0.0 - - - - - - -
30/10:30am 27.9 N 6 10 1018.3 - 0.0 - - - - - - -
30/10:00am 27.2 N 5 10 1018.7 - 0.0 - - - - - - -
30/09:30am 25.4 N 6 9 1019.0 - 0.0 - - - - - - -
30/09:00am 24.0 N 4 8 1019.2 - 0.0 - - - - - - -
30/08:30am 22.6 N 5 7 1019.3 - 0.0 - - - - - - -
30/08:00am 21.1 N 5 7 1019.1 - 0.0 - - - - - - -
30/07:30am 19.2 N 6 9 1018.8 - 0.0 - - - - - - -
30/07:00am 16.5 N 6 8 1018.8 - 0.0 - - - - - - -
30/06:30am 14.9 N 7 8 1018.6 - 0.0 - - - - - - -
30/06:00am 13.8 N 7 8 1018.4 - 0.0 - - - - - - -
30/05:30am 13.6 N 7 9 1018.1 - 0.0 - - - - - - -
30/05:00am 13.7 N 6 8 1017.6 - 0.0 - - - - - - -
30/04:30am 14.0 N 5 7 1017.5 - 0.0 - - - - - - -
30/04:00am 14.0 N 5 7 1017.3 - 0.0 - - - - - - -
30/03:30am 13.8 N 5 6 1017.3 - 0.0 - - - - - - -
30/03:00am 13.9 N 5 6 1017.3 - 0.0 - - - - - - -
30/02:30am 14.0 N 5 7 1017.2 - 0.0 - - - - - - -
30/02:00am 14.1 N 5 7 1017.4 - 0.0 - - - - - - -
30/01:30am 14.4 N 6 7 1017.4 - 0.0 - - - - - - -
30/01:00am 14.6 N 6 7 1017.7 - 0.0 - - - - - - -
30/12:30am 15.0 N 6 7 1017.8 - 0.0 - - - - - - -
30/12:00am 15.0 N 7 9 1017.8 - 0.0 - - - - - - -
 
Date/Time
EST
Temp

°C
Wind Pressure Rain
since 9am
mm
Weather Cloud Vis
km
Sea
Height
m
Swell
Dir
 
Speed
knots
Gust
knots
hPa Trend Height
m
Period
s
Dir
29/11:30pm 15.0 N 8 9 1017.9 - 0.0 - - - - - - -
29/11:00pm 15.4 N 7 8 1017.9 - 0.0 - - - - - - -
29/10:30pm 16.0 N 7 9 1018.0 - 0.0 - - - - - - -
29/10:00pm 16.7 N 7 10 1018.0 - 0.0 - - - - - - -
29/09:30pm 16.9 N 9 13 1017.9 - 0.0 - - - - - - -
29/09:00pm 17.3 N 9 12 1017.9 - 0.0 - - - - - - -
29/08:30pm 17.4 N 7 10 1017.9 - 0.0 - - - - - - -
29/08:00pm 17.9 N 8 11 1017.8 - 0.0 - - - - - - -
29/07:30pm 18.4 N 9 12 1017.5 - 0.0 - - - - - - -
29/07:00pm 18.7 NNE 9 13 1017.2 - 0.0 - - - - - - -
29/06:30pm 19.2 NNE 9 13 1016.9 - 0.0 - - - - - - -
29/06:00pm 19.5 NNE 9 13 1016.5 - 0.0 - - - - - - -
29/05:30pm 20.5 NNE 8 12 1016.2 - 0.0 - - - - - - -
29/05:00pm 21.7 NNE 8 12 1015.9 - 0.0 - - - - - - -
29/04:30pm 23.0 NNE 8 12 1015.9 - 0.0 - - - - - - -
29/04:00pm 23.5 NNE 10 14 1016.0 - 0.0 - - - - - - -
29/03:30pm 25.1 NE 10 13 1015.9 - 0.0 - - - - - - -
29/03:00pm 25.6 NE 9 15 1016.0 - 0.0 - - - - - - -
29/02:30pm 26.4 NNE 9 13 1016.0 - 0.0 - - - - - - -
29/02:00pm 26.5 NE 8 14 1016.2 - 0.0 - - - - - - -
29/01:30pm 26.0 NNE 8 13 1016.6 - 0.0 - - - - - - -
29/01:00pm 27.2 NNE 7 12 1017.1 - 0.0 - - - - - - -
29/12:30pm 27.3 N 4 11 1017.6 - 0.0 - - - - - - -
29/12:00pm 27.2 NNW 7 12 1017.9 - 0.0 - - - - - - -
29/11:30am 26.4 NNW 7 12 1018.3 - 0.0 - - - - - - -
29/11:00am 26.1 NNW 7 12 1018.8 - 0.0 - - - - - - -
29/10:30am 25.0 NNW 9 17 1019.3 - 0.0 - - - - - - -
29/10:00am 24.7 N 8 13 1019.7 - 0.0 - - - - - - -
29/09:30am 23.1 N 10 15 1019.7 - 0.0 - - - - - - -
29/09:00am 22.4 N 9 12 1019.9 - 0.0 - - - - - - -
29/08:30am 21.4 N 8 12 1020.3 - 0.0 - - - - - - -
29/08:00am 20.3 N 7 10 1020.7 - 0.0 - - - - - - -
29/07:30am 18.7 N 6 12 1020.8 - 0.0 - - - - - - -
29/07:00am 16.3 NNW 5 7 1020.7 - 0.0 - - - - - - -
29/06:30am 13.7 NNW 6 7 1020.5 - 0.0 - - - - - - -
29/06:00am 12.5 N 6 8 1020.2 - 0.0 - - - - - - -
29/05:30am 12.1 N 5 7 1020.0 - 0.0 - - - - - - -
29/05:00am 13.1 NW 5 7 1019.8 - 0.0 - - - - - - -
29/04:30am 13.2 NW 4 6 1019.6 - 0.0 - - - - - - -
29/04:00am 13.2 NW 5 5 1019.3 - 0.0 - - - - - - -
29/03:30am 12.6 NNW 5 6 1019.2 - 0.0 - - - - - - -
29/03:00am 12.1 NNW 6 7 1019.1 - 0.0 - - - - - - -
29/02:30am 12.0 N 5 7 1019.1 - 0.0 - - - - - - -
29/02:00am 12.5 N 6 7 1019.4 - 0.0 - - - - - - -
29/01:30am 12.8 N 6 7 1019.8 - 0.0 - - - - - - -
29/01:00am 13.0 N 6 7 1020.1 - 0.0 - - - - - - -
29/12:30am 13.0 N 6 7 1020.5 - 0.0 - - - - - - -
29/12:00am 13.3 N 5 6 1020.8 - 0.0 - - - - - - -
 
Date/Time
EST
Temp

°C
Wind Pressure Rain
since 9am
mm
Weather Cloud Vis
km
Sea
Height
m
Swell
Dir
 
Speed
knots
Gust
knots
hPa Trend Height
m
Period
s
Dir
28/11:30pm 13.5 N 5 6 1021.2 - 0.0 - - - - - - -
28/11:00pm 13.7 N 5 6 1021.4 - 0.0 - - - - - - -
28/10:30pm 14.2 N 5 7 1021.2 - 0.0 - - - - - - -
28/10:00pm 15.0 NNE 6 7 1021.2 - 0.0 - - - - - - -
28/09:30pm 15.4 NNE 6 7 1021.2 - 0.0 - - - - - - -
28/09:00pm 16.0 NE 6 8 1021.1 - 0.0 - - - - - - -
28/08:30pm 16.3 NE 5 7 1021.3 - 0.0 - - - - - - -
28/08:00pm 16.3 NE 5 6 1021.0 - 0.0 - - - - - - -
28/07:30pm 16.9 ENE 6 7 1020.6 - 0.0 - - - - - - -
28/07:00pm 17.1 E 6 8 1020.2 - 0.0 - - - - - - -
28/06:30pm 17.2 E 6 9 1020.0 - 0.0 - - - - - - -
28/06:00pm 17.1 E 6 8 1019.9 - 0.0 - - - - - - -
28/05:30pm 17.3 ESE 6 8 1019.8 - 0.0 - - - - - - -
28/05:00pm 18.2 SE 7 9 1019.8 - 0.0 - - - - - - -
28/04:30pm 19.0 SE 8 11 1019.8 - 0.0 - - - - - - -
28/04:00pm 19.6 SE 10 14 1019.7 - 0.0 - - - - - - -
28/03:30pm 20.1 SSE 11 14 1019.7 - 0.0 - - - - - - -
28/03:00pm 20.7 SSE 11 15 1019.8 - 0.0 - - - - - - -
28/02:30pm 21.3 SSE 12 16 1020.0 - 0.0 - - - - - - -
28/02:00pm 21.1 SSE 12 17 1020.3 - 0.0 - - - - - - -
28/01:30pm 21.1 SSE 12 16 1020.5 - 0.0 - - - - - - -
28/01:00pm 21.5 SSE 12 15 1020.8 - 0.0 - - - - - - -
28/12:30pm 22.0 SSE 10 15 1021.2 - 0.0 - - - - - - -
28/12:00pm 22.1 SSE 11 15 1021.4 - 0.0 - - - - - - -
28/11:30am 21.6 S 11 14 1021.8 - 0.0 - - - - - - -
28/11:00am 21.6 S 10 13 1022.0 - 0.0 - - - - - - -
28/10:30am 20.8 SSE 11 13 1022.3 - 0.0 - - - - - - -
28/10:00am 21.2 S 9 14 1022.6 - 0.0 - - - - - - -
28/09:30am 21.3 SSW 9 12 1022.7 - 0.0 - - - - - - -
28/09:00am 20.6 S 9 14 1022.6 - 0.0 - - - - - - -
28/08:30am 19.7 S 10 14 1022.6 - 0.0 - - - - - - -
28/08:00am 19.0 SW 6 10 1022.4 - 0.0 - - - - - - -
28/07:30am 17.6 SW 8 12 1022.1 - 0.0 - - - - - - -
28/07:00am 16.2 WSW 7 11 1022.0 - 0.0 - - - - - - -
28/06:30am 15.1 WSW 9 12 1021.7 - 0.0 - - - - - - -
28/06:00am 14.1 WSW 8 11 1021.3 - 0.0 - - - - - - -
28/05:30am 13.7 WSW 8 10 1021.2 - 0.0 - - - - - - -
28/05:00am 13.8 WSW 9 11 1021.1 - 0.0 - - - - - - -
28/04:30am 13.9 WSW 9 11 1020.8 - 0.0 - - - - - - -
28/04:00am 14.1 WSW 9 12 1020.6 - 0.0 - - - - - - -
28/03:30am 14.4 SW 10 14 1020.5 - 0.0 - - - - - - -
28/03:00am 14.5 WSW 8 11 1020.7 - 0.0 - - - - - - -
28/02:30am 15.0 SW 8 11 1020.7 - 0.0 - - - - - - -
28/02:00am 15.2 WSW 9 12 1021.1 - 0.0 - - - - - - -
28/01:30am 15.3 WSW 8 10 1021.0 - 0.0 - - - - - - -
28/01:00am 15.7 WSW 8 10 1021.1 - 0.0 - - - - - - -
28/12:30am 16.2 SW 7 10 1021.4 - 0.0 - - - - - - -
28/12:00am 17.6 S 10 13 1021.6 - 0.0 - - - - - - -
 
Date/Time
EST
Temp

°C
Wind Pressure Rain
since 9am
mm
Weather Cloud Vis
km
Sea
Height
m
Swell
Dir
 
Speed
knots
Gust
knots
hPa Trend Height
m
Period
s
Dir
27/11:30pm 17.9 S 12 17 1021.8 - 0.0 - - - - - - -
27/11:00pm 17.7 S 11 15 1021.6 - 0.0 - - - - - - -
27/10:30pm 17.2 S 9 13 1021.4 - 0.0 - - - - - - -
27/10:00pm 17.4 S 11 16 1021.1 - 0.0 - - - - - - -
27/09:30pm 17.8 S 13 17 1021.3 - 0.0 - - - - - - -
27/09:00pm 17.6 S 12 18 1020.8 - 0.0 - - - - - - -

Other Formats:

Comma delimited format used in spreadsheet applications
http://www.bom.gov.au/fwo/IDN60701/IDN60701.94598.axf

JavaScript Object Notation format (JSON) in row-major order
http://www.bom.gov.au/fwo/IDN60701/IDN60701.94598.json